CYFO

Flin Flon Airport

Flin Flon, Manitoba, Canada
METAR CYFO 232300Z 14008KT 15SM FEW150 29/07 A2986 RMK FU1 LAST OBS/NEXT 241100UTC SLP118 DENSITY ALT 3000FT
Observed Flight Rules
May-23 @ 23:00 UTC (3 hours ago) Visual Flight Rules
Wind Visibility Clouds
140° at 8 knots 15 miles
  • Few at 15,000' AGL
Temperatures Readings
Current 29°C / 84°F
Dewpoint 7°C / 45°F
Humidity 25%
Altimeter 29.86" Hg
Pressure 1011.8 hPa
Elevation 304
METAR CYFO 232300Z 14008KT 15SM FEW150 29/07 A2986 RMK FU1 LAST OBS/NEXT 241100UTC SLP118 DENSITY ALT 3000FT
Observed Flight Rules
May-23 @ 23:00 UTC
(3 hours ago)
VFR
Wind Visibility
140° at 8 knots 15 miles
Clouds
  • Few at 15,000' AGL
Temperature Dewpoint
29°C / 84°F 7°C / 45°F
Humidity Altimeter Pressure
25% 29.86" Hg 1011.8 hPa